sensor_id;sensor_type;location;lat;lon;timestamp;P1;durP1;ratioP1;P2;durP2;ratioP2
6185;SDS011;3126;52.738;8.316;2024-03-02T00:04:14;12.43;;;7.75;;
6185;SDS011;3126;52.738;8.316;2024-03-02T00:09:15;12.00;;;8.48;;
6185;SDS011;3126;52.738;8.316;2024-03-02T00:14:15;11.52;;;7.78;;
6185;SDS011;3126;52.738;8.316;2024-03-02T00:19:16;11.63;;;7.60;;
6185;SDS011;3126;52.738;8.316;2024-03-02T00:24:18;10.95;;;7.10;;
6185;SDS011;3126;52.738;8.316;2024-03-02T00:29:31;9.43;;;7.10;;
6185;SDS011;3126;52.738;8.316;2024-03-02T00:34:32;10.60;;;7.38;;
6185;SDS011;3126;52.738;8.316;2024-03-02T00:39:32;9.73;;;7.10;;
6185;SDS011;3126;52.738;8.316;2024-03-02T00:44:33;9.48;;;5.97;;
6185;SDS011;3126;52.738;8.316;2024-03-02T00:49:35;9.27;;;6.68;;
6185;SDS011;3126;52.738;8.316;2024-03-02T00:54:36;10.60;;;6.82;;
6185;SDS011;3126;52.738;8.316;2024-03-02T00:59:36;9.60;;;6.70;;
6185;SDS011;3126;52.738;8.316;2024-03-02T01:04:37;8.45;;;6.43;;
6185;SDS011;3126;52.738;8.316;2024-03-02T01:09:38;8.68;;;6.57;;
6185;SDS011;3126;52.738;8.316;2024-03-02T01:14:41;9.23;;;6.35;;
6185;SDS011;3126;52.738;8.316;2024-03-02T01:19:41;9.50;;;6.63;;
6185;SDS011;3126;52.738;8.316;2024-03-02T01:24:42;9.60;;;6.85;;
6185;SDS011;3126;52.738;8.316;2024-03-02T01:29:42;8.23;;;6.43;;
6185;SDS011;3126;52.738;8.316;2024-03-02T01:34:43;12.88;;;7.25;;
6185;SDS011;3126;52.738;8.316;2024-03-02T01:39:44;10.85;;;7.05;;
6185;SDS011;3126;52.738;8.316;2024-03-02T01:44:45;9.65;;;6.78;;
6185;SDS011;3126;52.738;8.316;2024-03-02T01:49:46;9.63;;;7.05;;
6185;SDS011;3126;52.738;8.316;2024-03-02T01:54:47;11.57;;;7.03;;
6185;SDS011;3126;52.738;8.316;2024-03-02T01:59:48;8.25;;;6.18;;
6185;SDS011;3126;52.738;8.316;2024-03-02T02:04:50;9.30;;;6.28;;
6185;SDS011;3126;52.738;8.316;2024-03-02T02:09:51;10.77;;;7.57;;
6185;SDS011;3126;52.738;8.316;2024-03-02T02:14:52;12.07;;;7.57;;
6185;SDS011;3126;52.738;8.316;2024-03-02T02:19:53;10.82;;;7.18;;
6185;SDS011;3126;52.738;8.316;2024-03-02T02:24:54;10.70;;;7.90;;
6185;SDS011;3126;52.738;8.316;2024-03-02T02:29:55;14.05;;;8.27;;
6185;SDS011;3126;52.738;8.316;2024-03-02T02:34:56;11.88;;;8.43;;
6185;SDS011;3126;52.738;8.316;2024-03-02T02:39:57;11.65;;;7.70;;
6185;SDS011;3126;52.738;8.316;2024-03-02T02:44:57;11.57;;;7.88;;
6185;SDS011;3126;52.738;8.316;2024-03-02T02:49:58;12.73;;;7.25;;
6185;SDS011;3126;52.738;8.316;2024-03-02T02:54:59;13.57;;;8.35;;
6185;SDS011;3126;52.738;8.316;2024-03-02T03:00:02;12.82;;;8.48;;
6185;SDS011;3126;52.738;8.316;2024-03-02T03:05:11;11.82;;;8.00;;
6185;SDS011;3126;52.738;8.316;2024-03-02T03:10:12;12.52;;;8.50;;
6185;SDS011;3126;52.738;8.316;2024-03-02T03:15:13;12.15;;;8.45;;
6185;SDS011;3126;52.738;8.316;2024-03-02T03:20:14;13.00;;;8.27;;
6185;SDS011;3126;52.738;8.316;2024-03-02T03:25:15;12.32;;;9.00;;
6185;SDS011;3126;52.738;8.316;2024-03-02T03:30:15;16.45;;;9.02;;
6185;SDS011;3126;52.738;8.316;2024-03-02T03:35:16;12.63;;;8.57;;
6185;SDS011;3126;52.738;8.316;2024-03-02T03:40:18;14.27;;;9.07;;
6185;SDS011;3126;52.738;8.316;2024-03-02T03:45:19;16.25;;;8.90;;
6185;SDS011;3126;52.738;8.316;2024-03-02T03:50:20;14.55;;;9.98;;
6185;SDS011;3126;52.738;8.316;2024-03-02T03:55:21;13.57;;;9.07;;
6185;SDS011;3126;52.738;8.316;2024-03-02T04:00:21;13.00;;;8.63;;
6185;SDS011;3126;52.738;8.316;2024-03-02T04:05:22;14.77;;;8.43;;
6185;SDS011;3126;52.738;8.316;2024-03-02T04:10:22;13.13;;;8.80;;
6185;SDS011;3126;52.738;8.316;2024-03-02T04:15:24;16.20;;;9.18;;
6185;SDS011;3126;52.738;8.316;2024-03-02T04:20:25;16.73;;;10.05;;
6185;SDS011;3126;52.738;8.316;2024-03-02T04:25:25;15.25;;;10.02;;
6185;SDS011;3126;52.738;8.316;2024-03-02T04:30:26;11.65;;;8.82;;
6185;SDS011;3126;52.738;8.316;2024-03-02T04:35:26;13.50;;;9.45;;
6185;SDS011;3126;52.738;8.316;2024-03-02T04:40:27;15.10;;;9.77;;
6185;SDS011;3126;52.738;8.316;2024-03-02T04:45:28;13.73;;;9.10;;
6185;SDS011;3126;52.738;8.316;2024-03-02T04:50:28;15.05;;;9.52;;
6185;SDS011;3126;52.738;8.316;2024-03-02T04:55:29;13.55;;;9.43;;
6185;SDS011;3126;52.738;8.316;2024-03-02T05:00:55;14.98;;;9.63;;
6185;SDS011;3126;52.738;8.316;2024-03-02T05:05:56;12.82;;;8.80;;
6185;SDS011;3126;52.738;8.316;2024-03-02T05:10:57;13.70;;;9.02;;
6185;SDS011;3126;52.738;8.316;2024-03-02T05:16:17;13.40;;;8.63;;
6185;SDS011;3126;52.738;8.316;2024-03-02T05:21:18;11.93;;;8.35;;
6185;SDS011;3126;52.738;8.316;2024-03-02T05:26:18;11.93;;;8.43;;
6185;SDS011;3126;52.738;8.316;2024-03-02T05:31:19;11.70;;;8.82;;
6185;SDS011;3126;52.738;8.316;2024-03-02T05:36:20;13.55;;;9.70;;
6185;SDS011;3126;52.738;8.316;2024-03-02T05:41:20;11.73;;;8.90;;
6185;SDS011;3126;52.738;8.316;2024-03-02T05:46:21;14.20;;;8.77;;
6185;SDS011;3126;52.738;8.316;2024-03-02T05:51:22;13.35;;;8.38;;
6185;SDS011;3126;52.738;8.316;2024-03-02T05:56:22;13.48;;;9.05;;
6185;SDS011;3126;52.738;8.316;2024-03-02T06:01:23;12.70;;;9.55;;
6185;SDS011;3126;52.738;8.316;2024-03-02T06:06:28;13.32;;;8.77;;
6185;SDS011;3126;52.738;8.316;2024-03-02T06:11:28;14.05;;;9.68;;
6185;SDS011;3126;52.738;8.316;2024-03-02T06:16:29;15.02;;;10.00;;
6185;SDS011;3126;52.738;8.316;2024-03-02T06:21:30;15.05;;;9.68;;
6185;SDS011;3126;52.738;8.316;2024-03-02T06:26:30;14.05;;;9.95;;
6185;SDS011;3126;52.738;8.316;2024-03-02T06:31:31;15.95;;;9.35;;
6185;SDS011;3126;52.738;8.316;2024-03-02T06:36:32;13.25;;;9.65;;
6185;SDS011;3126;52.738;8.316;2024-03-02T06:41:33;16.73;;;10.52;;
6185;SDS011;3126;52.738;8.316;2024-03-02T06:46:34;14.80;;;10.98;;
6185;SDS011;3126;52.738;8.316;2024-03-02T06:51:35;16.02;;;10.10;;
6185;SDS011;3126;52.738;8.316;2024-03-02T06:56:35;15.68;;;9.68;;
6185;SDS011;3126;52.738;8.316;2024-03-02T07:01:37;16.23;;;10.38;;
6185;SDS011;3126;52.738;8.316;2024-03-02T07:06:38;14.18;;;9.25;;
6185;SDS011;3126;52.738;8.316;2024-03-02T07:11:38;17.25;;;10.63;;
6185;SDS011;3126;52.738;8.316;2024-03-02T07:16:39;15.60;;;11.05;;
6185;SDS011;3126;52.738;8.316;2024-03-02T07:21:40;16.52;;;10.57;;
6185;SDS011;3126;52.738;8.316;2024-03-02T07:26:42;15.45;;;10.32;;
6185;SDS011;3126;52.738;8.316;2024-03-02T07:31:43;12.77;;;9.88;;
6185;SDS011;3126;52.738;8.316;2024-03-02T07:36:44;14.85;;;10.20;;
6185;SDS011;3126;52.738;8.316;2024-03-02T07:41:45;15.77;;;10.27;;
6185;SDS011;3126;52.738;8.316;2024-03-02T07:46:46;16.58;;;10.57;;
6185;SDS011;3126;52.738;8.316;2024-03-02T07:51:47;15.05;;;9.88;;
6185;SDS011;3126;52.738;8.316;2024-03-02T07:56:47;14.93;;;9.75;;
6185;SDS011;3126;52.738;8.316;2024-03-02T08:01:48;14.73;;;9.98;;
6185;SDS011;3126;52.738;8.316;2024-03-02T08:06:50;17.85;;;10.82;;
6185;SDS011;3126;52.738;8.316;2024-03-02T08:11:51;13.70;;;9.95;;
6185;SDS011;3126;52.738;8.316;2024-03-02T08:16:52;14.35;;;9.35;;
6185;SDS011;3126;52.738;8.316;2024-03-02T08:21:53;12.57;;;9.23;;
6185;SDS011;3126;52.738;8.316;2024-03-02T08:26:54;14.00;;;9.57;;
6185;SDS011;3126;52.738;8.316;2024-03-02T08:31:55;14.10;;;9.43;;
6185;SDS011;3126;52.738;8.316;2024-03-02T08:36:56;13.25;;;9.18;;
6185;SDS011;3126;52.738;8.316;2024-03-02T08:41:57;12.57;;;8.80;;
6185;SDS011;3126;52.738;8.316;2024-03-02T08:46:58;13.40;;;9.30;;
6185;SDS011;3126;52.738;8.316;2024-03-02T08:51:59;13.60;;;9.23;;
6185;SDS011;3126;52.738;8.316;2024-03-02T08:57:00;13.45;;;8.75;;
6185;SDS011;3126;52.738;8.316;2024-03-02T09:02:02;14.13;;;8.57;;
6185;SDS011;3126;52.738;8.316;2024-03-02T09:07:03;11.45;;;8.38;;
6185;SDS011;3126;52.738;8.316;2024-03-02T09:12:05;12.07;;;8.00;;
6185;SDS011;3126;52.738;8.316;2024-03-02T09:17:06;11.07;;;9.07;;
6185;SDS011;3126;52.738;8.316;2024-03-02T09:22:06;13.35;;;9.00;;
6185;SDS011;3126;52.738;8.316;2024-03-02T09:27:07;9.85;;;6.88;;
6185;SDS011;3126;52.738;8.316;2024-03-02T09:32:11;10.05;;;7.30;;
6185;SDS011;3126;52.738;8.316;2024-03-02T09:37:13;13.38;;;8.30;;
6185;SDS011;3126;52.738;8.316;2024-03-02T09:42:14;10.20;;;7.50;;
6185;SDS011;3126;52.738;8.316;2024-03-02T09:47:15;10.20;;;7.85;;
6185;SDS011;3126;52.738;8.316;2024-03-02T09:52:16;9.18;;;7.32;;
6185;SDS011;3126;52.738;8.316;2024-03-02T09:57:17;9.10;;;7.65;;
6185;SDS011;3126;52.738;8.316;2024-03-02T10:02:18;8.35;;;7.22;;
6185;SDS011;3126;52.738;8.316;2024-03-02T10:07:19;10.60;;;6.93;;
6185;SDS011;3126;52.738;8.316;2024-03-02T10:12:20;9.20;;;7.03;;
6185;SDS011;3126;52.738;8.316;2024-03-02T10:17:22;9.00;;;6.38;;
6185;SDS011;3126;52.738;8.316;2024-03-02T10:22:23;7.97;;;6.32;;
6185;SDS011;3126;52.738;8.316;2024-03-02T10:32:27;9.82;;;6.88;;
6185;SDS011;3126;52.738;8.316;2024-03-02T10:37:28;7.47;;;5.78;;
6185;SDS011;3126;52.738;8.316;2024-03-02T10:42:29;8.23;;;5.72;;
6185;SDS011;3126;52.738;8.316;2024-03-02T10:47:31;7.90;;;6.25;;
6185;SDS011;3126;52.738;8.316;2024-03-02T10:52:32;7.38;;;5.22;;
6185;SDS011;3126;52.738;8.316;2024-03-02T10:57:36;7.65;;;5.10;;
6185;SDS011;3126;52.738;8.316;2024-03-02T11:02:50;6.60;;;4.50;;
6185;SDS011;3126;52.738;8.316;2024-03-02T11:07:52;6.57;;;4.75;;
6185;SDS011;3126;52.738;8.316;2024-03-02T11:12:59;4.40;;;4.00;;
6185;SDS011;3126;52.738;8.316;2024-03-02T11:18:02;5.95;;;3.88;;
6185;SDS011;3126;52.738;8.316;2024-03-02T11:28:06;7.45;;;4.55;;
6185;SDS011;3126;52.738;8.316;2024-03-02T11:33:10;5.00;;;4.35;;
6185;SDS011;3126;52.738;8.316;2024-03-02T11:38:11;6.80;;;4.75;;
6185;SDS011;3126;52.738;8.316;2024-03-02T11:43:12;5.72;;;3.95;;
6185;SDS011;3126;52.738;8.316;2024-03-02T11:48:14;5.80;;;4.35;;
6185;SDS011;3126;52.738;8.316;2024-03-02T11:53:15;5.57;;;4.32;;
6185;SDS011;3126;52.738;8.316;2024-03-02T11:58:17;6.55;;;4.43;;
6185;SDS011;3126;52.738;8.316;2024-03-02T12:03:20;5.65;;;4.40;;
6185;SDS011;3126;52.738;8.316;2024-03-02T12:08:22;6.18;;;4.03;;
6185;SDS011;3126;52.738;8.316;2024-03-02T12:13:23;6.70;;;5.22;;
6185;SDS011;3126;52.738;8.316;2024-03-02T12:18:24;5.38;;;4.63;;
6185;SDS011;3126;52.738;8.316;2024-03-02T12:23:25;5.65;;;4.55;;
6185;SDS011;3126;52.738;8.316;2024-03-02T12:28:26;4.75;;;4.30;;
6185;SDS011;3126;52.738;8.316;2024-03-02T12:33:28;3.90;;;3.20;;
6185;SDS011;3126;52.738;8.316;2024-03-02T12:38:30;4.25;;;3.28;;
6185;SDS011;3126;52.738;8.316;2024-03-02T12:43:31;4.18;;;3.78;;
6185;SDS011;3126;52.738;8.316;2024-03-02T12:48:32;5.25;;;3.67;;
6185;SDS011;3126;52.738;8.316;2024-03-02T12:53:33;4.82;;;3.90;;
6185;SDS011;3126;52.738;8.316;2024-03-02T12:58:40;4.32;;;3.92;;
6185;SDS011;3126;52.738;8.316;2024-03-02T13:03:41;4.22;;;3.70;;
6185;SDS011;3126;52.738;8.316;2024-03-02T13:08:42;4.57;;;3.85;;
6185;SDS011;3126;52.738;8.316;2024-03-02T13:13:43;4.55;;;3.55;;
6185;SDS011;3126;52.738;8.316;2024-03-02T13:18:44;5.13;;;4.05;;
6185;SDS011;3126;52.738;8.316;2024-03-02T13:23:45;4.32;;;3.85;;
6185;SDS011;3126;52.738;8.316;2024-03-02T13:28:46;4.75;;;4.35;;
6185;SDS011;3126;52.738;8.316;2024-03-02T13:33:47;6.82;;;4.32;;
6185;SDS011;3126;52.738;8.316;2024-03-02T13:38:48;6.32;;;4.22;;
6185;SDS011;3126;52.738;8.316;2024-03-02T13:43:49;6.13;;;4.55;;
6185;SDS011;3126;52.738;8.316;2024-03-02T13:48:50;4.85;;;4.10;;
6185;SDS011;3126;52.738;8.316;2024-03-02T13:53:52;5.82;;;4.05;;
6185;SDS011;3126;52.738;8.316;2024-03-02T13:58:53;5.32;;;4.28;;
6185;SDS011;3126;52.738;8.316;2024-03-02T14:03:53;5.07;;;4.10;;
6185;SDS011;3126;52.738;8.316;2024-03-02T14:08:55;6.03;;;4.10;;
6185;SDS011;3126;52.738;8.316;2024-03-02T14:13:56;7.18;;;4.07;;
6185;SDS011;3126;52.738;8.316;2024-03-02T14:18:57;6.40;;;4.60;;
6185;SDS011;3126;52.738;8.316;2024-03-02T14:23:59;5.15;;;4.35;;
6185;SDS011;3126;52.738;8.316;2024-03-02T14:29:00;5.70;;;4.43;;
6185;SDS011;3126;52.738;8.316;2024-03-02T14:34:04;5.72;;;4.22;;
6185;SDS011;3126;52.738;8.316;2024-03-02T14:39:05;7.80;;;5.25;;
6185;SDS011;3126;52.738;8.316;2024-03-02T14:44:10;7.40;;;5.57;;
6185;SDS011;3126;52.738;8.316;2024-03-02T14:49:11;7.20;;;5.13;;
6185;SDS011;3126;52.738;8.316;2024-03-02T14:54:12;6.45;;;4.90;;
6185;SDS011;3126;52.738;8.316;2024-03-02T14:59:13;7.47;;;4.63;;
6185;SDS011;3126;52.738;8.316;2024-03-02T15:04:14;5.68;;;4.38;;
6185;SDS011;3126;52.738;8.316;2024-03-02T15:09:16;5.20;;;4.50;;
6185;SDS011;3126;52.738;8.316;2024-03-02T15:14:19;5.35;;;4.43;;
6185;SDS011;3126;52.738;8.316;2024-03-02T15:19:20;6.28;;;4.68;;
6185;SDS011;3126;52.738;8.316;2024-03-02T15:24:21;5.28;;;4.22;;
6185;SDS011;3126;52.738;8.316;2024-03-02T15:29:22;6.38;;;4.45;;
6185;SDS011;3126;52.738;8.316;2024-03-02T15:34:28;5.88;;;5.00;;
6185;SDS011;3126;52.738;8.316;2024-03-02T15:39:29;8.85;;;5.03;;
6185;SDS011;3126;52.738;8.316;2024-03-02T15:44:30;6.70;;;4.97;;
6185;SDS011;3126;52.738;8.316;2024-03-02T15:49:32;6.60;;;5.25;;
6185;SDS011;3126;52.738;8.316;2024-03-02T15:54:33;5.18;;;4.68;;
6185;SDS011;3126;52.738;8.316;2024-03-02T15:59:34;6.05;;;5.45;;
6185;SDS011;3126;52.738;8.316;2024-03-02T16:04:34;5.57;;;4.40;;
6185;SDS011;3126;52.738;8.316;2024-03-02T16:09:35;8.50;;;5.75;;
6185;SDS011;3126;52.738;8.316;2024-03-02T16:14:36;5.95;;;4.38;;
6185;SDS011;3126;52.738;8.316;2024-03-02T16:19:37;6.38;;;4.70;;
6185;SDS011;3126;52.738;8.316;2024-03-02T16:24:40;6.40;;;4.32;;
6185;SDS011;3126;52.738;8.316;2024-03-02T16:29:41;5.43;;;4.68;;
6185;SDS011;3126;52.738;8.316;2024-03-02T16:34:42;5.85;;;4.38;;
6185;SDS011;3126;52.738;8.316;2024-03-02T16:39:43;5.32;;;4.35;;
6185;SDS011;3126;52.738;8.316;2024-03-02T16:44:44;6.22;;;4.22;;
6185;SDS011;3126;52.738;8.316;2024-03-02T16:49:47;5.13;;;4.22;;
6185;SDS011;3126;52.738;8.316;2024-03-02T16:54:48;4.35;;;3.95;;
6185;SDS011;3126;52.738;8.316;2024-03-02T16:59:49;5.43;;;4.60;;
6185;SDS011;3126;52.738;8.316;2024-03-02T17:04:51;5.32;;;4.80;;
6185;SDS011;3126;52.738;8.316;2024-03-02T17:09:53;5.07;;;4.15;;
6185;SDS011;3126;52.738;8.316;2024-03-02T17:14:56;4.47;;;3.80;;
6185;SDS011;3126;52.738;8.316;2024-03-02T17:19:57;5.22;;;3.95;;
6185;SDS011;3126;52.738;8.316;2024-03-02T17:24:58;4.82;;;3.42;;
6185;SDS011;3126;52.738;8.316;2024-03-02T17:29:59;6.40;;;4.60;;
6185;SDS011;3126;52.738;8.316;2024-03-02T17:35:00;4.85;;;3.67;;
6185;SDS011;3126;52.738;8.316;2024-03-02T17:40:01;4.90;;;4.40;;
6185;SDS011;3126;52.738;8.316;2024-03-02T17:45:05;6.18;;;4.30;;
6185;SDS011;3126;52.738;8.316;2024-03-02T17:50:06;5.57;;;3.97;;
6185;SDS011;3126;52.738;8.316;2024-03-02T17:55:07;3.90;;;3.35;;
6185;SDS011;3126;52.738;8.316;2024-03-02T18:00:08;5.63;;;3.58;;
6185;SDS011;3126;52.738;8.316;2024-03-02T18:05:14;5.10;;;3.13;;
6185;SDS011;3126;52.738;8.316;2024-03-02T18:10:15;6.40;;;3.13;;
6185;SDS011;3126;52.738;8.316;2024-03-02T18:15:16;2.95;;;2.53;;
6185;SDS011;3126;52.738;8.316;2024-03-02T18:20:17;2.97;;;2.50;;
6185;SDS011;3126;52.738;8.316;2024-03-02T18:25:18;4.70;;;2.40;;
6185;SDS011;3126;52.738;8.316;2024-03-02T18:30:19;4.55;;;3.08;;
6185;SDS011;3126;52.738;8.316;2024-03-02T18:35:20;3.50;;;2.63;;
6185;SDS011;3126;52.738;8.316;2024-03-02T18:40:21;3.28;;;2.58;;
6185;SDS011;3126;52.738;8.316;2024-03-02T18:45:21;3.85;;;2.92;;
6185;SDS011;3126;52.738;8.316;2024-03-02T18:50:22;5.07;;;3.05;;
6185;SDS011;3126;52.738;8.316;2024-03-02T18:55:22;3.53;;;2.83;;
6185;SDS011;3126;52.738;8.316;2024-03-02T19:00:23;5.28;;;3.38;;
6185;SDS011;3126;52.738;8.316;2024-03-02T19:05:23;3.67;;;2.30;;
6185;SDS011;3126;52.738;8.316;2024-03-02T19:10:24;3.28;;;2.97;;
6185;SDS011;3126;52.738;8.316;2024-03-02T19:15:25;4.68;;;3.67;;
6185;SDS011;3126;52.738;8.316;2024-03-02T19:20:26;4.35;;;2.50;;
6185;SDS011;3126;52.738;8.316;2024-03-02T19:25:27;3.85;;;3.25;;
6185;SDS011;3126;52.738;8.316;2024-03-02T19:30:28;4.20;;;3.33;;
6185;SDS011;3126;52.738;8.316;2024-03-02T19:35:28;6.45;;;3.83;;
6185;SDS011;3126;52.738;8.316;2024-03-02T19:40:29;6.13;;;4.38;;
6185;SDS011;3126;52.738;8.316;2024-03-02T19:45:30;6.15;;;4.38;;
6185;SDS011;3126;52.738;8.316;2024-03-02T19:50:30;6.10;;;4.63;;
6185;SDS011;3126;52.738;8.316;2024-03-02T19:55:31;7.13;;;5.07;;
6185;SDS011;3126;52.738;8.316;2024-03-02T20:00:31;6.05;;;5.00;;
6185;SDS011;3126;52.738;8.316;2024-03-02T20:05:32;8.27;;;4.80;;
6185;SDS011;3126;52.738;8.316;2024-03-02T20:10:33;7.97;;;5.70;;
6185;SDS011;3126;52.738;8.316;2024-03-02T20:15:34;8.75;;;6.38;;
6185;SDS011;3126;52.738;8.316;2024-03-02T20:20:34;7.65;;;5.20;;
6185;SDS011;3126;52.738;8.316;2024-03-02T20:25:35;9.38;;;5.72;;
6185;SDS011;3126;52.738;8.316;2024-03-02T20:30:36;11.43;;;5.97;;
6185;SDS011;3126;52.738;8.316;2024-03-02T20:35:37;8.70;;;5.63;;
6185;SDS011;3126;52.738;8.316;2024-03-02T20:40:38;10.85;;;6.22;;
6185;SDS011;3126;52.738;8.316;2024-03-02T20:45:40;9.77;;;6.63;;
6185;SDS011;3126;52.738;8.316;2024-03-02T20:50:41;9.20;;;5.72;;
6185;SDS011;3126;52.738;8.316;2024-03-02T20:55:41;10.88;;;5.82;;
6185;SDS011;3126;52.738;8.316;2024-03-02T21:00:42;9.38;;;6.45;;
6185;SDS011;3126;52.738;8.316;2024-03-02T21:05:43;9.23;;;6.20;;
6185;SDS011;3126;52.738;8.316;2024-03-02T21:10:44;8.85;;;5.78;;
6185;SDS011;3126;52.738;8.316;2024-03-02T21:15:44;11.15;;;6.53;;
6185;SDS011;3126;52.738;8.316;2024-03-02T21:20:45;8.63;;;6.53;;
6185;SDS011;3126;52.738;8.316;2024-03-02T21:25:46;11.10;;;6.00;;
6185;SDS011;3126;52.738;8.316;2024-03-02T21:30:46;8.02;;;6.13;;
6185;SDS011;3126;52.738;8.316;2024-03-02T21:35:47;8.27;;;5.97;;
6185;SDS011;3126;52.738;8.316;2024-03-02T21:40:48;9.45;;;6.20;;
6185;SDS011;3126;52.738;8.316;2024-03-02T21:45:49;9.85;;;6.22;;
6185;SDS011;3126;52.738;8.316;2024-03-02T21:50:50;7.90;;;5.63;;
6185;SDS011;3126;52.738;8.316;2024-03-02T21:55:51;8.23;;;6.80;;
6185;SDS011;3126;52.738;8.316;2024-03-02T22:00:52;10.32;;;5.82;;
6185;SDS011;3126;52.738;8.316;2024-03-02T22:05:53;8.05;;;6.00;;
6185;SDS011;3126;52.738;8.316;2024-03-02T22:10:54;7.13;;;5.25;;
6185;SDS011;3126;52.738;8.316;2024-03-02T22:15:55;7.82;;;5.95;;
6185;SDS011;3126;52.738;8.316;2024-03-02T22:20:56;8.32;;;5.53;;
6185;SDS011;3126;52.738;8.316;2024-03-02T22:26:00;8.38;;;5.32;;
6185;SDS011;3126;52.738;8.316;2024-03-02T22:31:01;8.27;;;6.20;;
6185;SDS011;3126;52.738;8.316;2024-03-02T22:36:02;8.75;;;4.97;;
6185;SDS011;3126;52.738;8.316;2024-03-02T22:41:03;8.73;;;6.47;;
6185;SDS011;3126;52.738;8.316;2024-03-02T22:46:06;8.07;;;5.60;;
6185;SDS011;3126;52.738;8.316;2024-03-02T22:51:08;9.63;;;5.85;;
6185;SDS011;3126;52.738;8.316;2024-03-02T22:56:09;8.25;;;5.45;;
6185;SDS011;3126;52.738;8.316;2024-03-02T23:01:09;8.38;;;6.85;;
6185;SDS011;3126;52.738;8.316;2024-03-02T23:06:10;9.40;;;6.78;;
6185;SDS011;3126;52.738;8.316;2024-03-02T23:11:11;8.90;;;6.30;;
6185;SDS011;3126;52.738;8.316;2024-03-02T23:16:12;9.55;;;6.38;;
6185;SDS011;3126;52.738;8.316;2024-03-02T23:21:13;9.40;;;7.10;;
6185;SDS011;3126;52.738;8.316;2024-03-02T23:26:14;10.98;;;6.47;;
6185;SDS011;3126;52.738;8.316;2024-03-02T23:31:15;14.30;;;7.25;;
6185;SDS011;3126;52.738;8.316;2024-03-02T23:36:16;8.93;;;6.00;;
6185;SDS011;3126;52.738;8.316;2024-03-02T23:41:17;10.73;;;6.22;;
6185;SDS011;3126;52.738;8.316;2024-03-02T23:46:18;9.70;;;5.82;;
6185;SDS011;3126;52.738;8.316;2024-03-02T23:51:19;8.88;;;6.40;;
6185;SDS011;3126;52.738;8.316;2024-03-02T23:56:20;10.15;;;6.82;;
